sensor_id;sensor_type;location;lat;lon;timestamp;temperature;humidity
63047;DHT22;62025;39.238;9.126;2022-10-28T00:00:46;21.10;56.90
63047;DHT22;62025;39.238;9.126;2022-10-28T00:03:12;21.00;56.90
63047;DHT22;62025;39.238;9.126;2022-10-28T00:05:38;20.90;56.40
63047;DHT22;62025;39.238;9.126;2022-10-28T00:08:04;20.90;56.30
63047;DHT22;62025;39.238;9.126;2022-10-28T00:10:30;20.90;56.00
63047;DHT22;62025;39.238;9.126;2022-10-28T00:12:56;20.90;55.60
63047;DHT22;62025;39.238;9.126;2022-10-28T00:15:22;20.70;55.60
63047;DHT22;62025;39.238;9.126;2022-10-28T00:17:48;20.80;55.40
63047;DHT22;62025;39.238;9.126;2022-10-28T00:20:14;20.80;54.80
63047;DHT22;62025;39.238;9.126;2022-10-28T00:22:42;20.60;54.80
63047;DHT22;62025;39.238;9.126;2022-10-28T00:25:08;20.40;55.10
63047;DHT22;62025;39.238;9.126;2022-10-28T00:27:35;20.40;55.00
63047;DHT22;62025;39.238;9.126;2022-10-28T00:30:00;20.40;54.90
63047;DHT22;62025;39.238;9.126;2022-10-28T00:32:27;20.50;54.70
63047;DHT22;62025;39.238;9.126;2022-10-28T00:34:54;20.50;54.60
63047;DHT22;62025;39.238;9.126;2022-10-28T00:37:20;20.40;54.40
63047;DHT22;62025;39.238;9.126;2022-10-28T00:39:46;20.40;54.50
63047;DHT22;62025;39.238;9.126;2022-10-28T00:42:11;20.40;54.40
63047;DHT22;62025;39.238;9.126;2022-10-28T00:50:19;20.50;54.50
63047;DHT22;62025;39.238;9.126;2022-10-28T00:53:11;20.50;54.40
63047;DHT22;62025;39.238;9.126;2022-10-28T00:55:42;20.30;54.40
63047;DHT22;62025;39.238;9.126;2022-10-28T00:58:08;20.40;54.40
63047;DHT22;62025;39.238;9.126;2022-10-28T01:00:35;20.50;54.30
63047;DHT22;62025;39.238;9.126;2022-10-28T01:03:01;20.50;54.40
63047;DHT22;62025;39.238;9.126;2022-10-28T01:05:28;20.50;54.30
63047;DHT22;62025;39.238;9.126;2022-10-28T01:07:59;20.50;53.90
63047;DHT22;62025;39.238;9.126;2022-10-28T01:10:35;20.50;53.60
63047;DHT22;62025;39.238;9.126;2022-10-28T01:40:33;20.40;51.00
63047;DHT22;62025;39.238;9.126;2022-10-28T01:43:11;20.50;52.30
63047;DHT22;62025;39.238;9.126;2022-10-28T01:45:42;20.40;53.00
63047;DHT22;62025;39.238;9.126;2022-10-28T01:48:21;20.50;53.30
63047;DHT22;62025;39.238;9.126;2022-10-28T01:53:33;20.50;53.60
63047;DHT22;62025;39.238;9.126;2022-10-28T01:56:03;20.30;53.60
63047;DHT22;62025;39.238;9.126;2022-10-28T01:58:32;20.30;53.80
63047;DHT22;62025;39.238;9.126;2022-10-28T02:00:58;20.20;53.80
63047;DHT22;62025;39.238;9.126;2022-10-28T02:03:26;20.20;53.90
63047;DHT22;62025;39.238;9.126;2022-10-28T02:05:53;20.30;53.70
63047;DHT22;62025;39.238;9.126;2022-10-28T02:11:19;20.20;53.70
63047;DHT22;62025;39.238;9.126;2022-10-28T02:16:54;20.20;53.80
63047;DHT22;62025;39.238;9.126;2022-10-28T02:20:09;20.30;53.80
63047;DHT22;62025;39.238;9.126;2022-10-28T02:32:58;20.20;54.00
63047;DHT22;62025;39.238;9.126;2022-10-28T02:36:08;20.00;53.90
63047;DHT22;62025;39.238;9.126;2022-10-28T02:38:17;20.00;53.80
63047;DHT22;62025;39.238;9.126;2022-10-28T02:40:47;19.90;53.60
63047;DHT22;62025;39.238;9.126;2022-10-28T02:43:14;19.80;53.70
63047;DHT22;62025;39.238;9.126;2022-10-28T02:45:42;19.90;53.10
63047;DHT22;62025;39.238;9.126;2022-10-28T02:50:52;19.70;52.70
63047;DHT22;62025;39.238;9.126;2022-10-28T02:53:20;19.60;52.60
63047;DHT22;62025;39.238;9.126;2022-10-28T02:55:52;19.70;52.10
63047;DHT22;62025;39.238;9.126;2022-10-28T02:58:19;19.80;52.00
63047;DHT22;62025;39.238;9.126;2022-10-28T03:00:46;19.70;51.60
63047;DHT22;62025;39.238;9.126;2022-10-28T03:03:12;19.70;51.60
63047;DHT22;62025;39.238;9.126;2022-10-28T03:05:38;19.60;51.30
63047;DHT22;62025;39.238;9.126;2022-10-28T03:08:04;19.70;51.30
63047;DHT22;62025;39.238;9.126;2022-10-28T03:10:30;19.70;51.30
63047;DHT22;62025;39.238;9.126;2022-10-28T03:12:56;19.50;51.30
63047;DHT22;62025;39.238;9.126;2022-10-28T03:15:22;19.40;51.60
63047;DHT22;62025;39.238;9.126;2022-10-28T03:17:47;19.40;51.30
63047;DHT22;62025;39.238;9.126;2022-10-28T03:20:13;19.40;51.20
63047;DHT22;62025;39.238;9.126;2022-10-28T03:22:41;19.40;51.00
63047;DHT22;62025;39.238;9.126;2022-10-28T03:25:08;19.40;51.00
63047;DHT22;62025;39.238;9.126;2022-10-28T03:27:34;19.30;51.00
63047;DHT22;62025;39.238;9.126;2022-10-28T03:30:00;19.30;50.70
63047;DHT22;62025;39.238;9.126;2022-10-28T03:32:26;19.30;50.70
63047;DHT22;62025;39.238;9.126;2022-10-28T03:34:52;19.30;50.80
63047;DHT22;62025;39.238;9.126;2022-10-28T03:37:18;19.30;50.50
63047;DHT22;62025;39.238;9.126;2022-10-28T03:39:44;19.30;50.50
63047;DHT22;62025;39.238;9.126;2022-10-28T03:42:10;19.20;50.60
63047;DHT22;62025;39.238;9.126;2022-10-28T03:44:35;19.30;50.60
63047;DHT22;62025;39.238;9.126;2022-10-28T03:47:01;19.30;50.60
63047;DHT22;62025;39.238;9.126;2022-10-28T03:49:27;19.30;50.60
63047;DHT22;62025;39.238;9.126;2022-10-28T03:51:53;19.30;50.80
63047;DHT22;62025;39.238;9.126;2022-10-28T03:54:19;19.30;51.00
63047;DHT22;62025;39.238;9.126;2022-10-28T03:56:45;19.30;51.20
63047;DHT22;62025;39.238;9.126;2022-10-28T03:59:11;19.30;51.20
63047;DHT22;62025;39.238;9.126;2022-10-28T04:01:37;19.40;51.10
63047;DHT22;62025;39.238;9.126;2022-10-28T04:04:02;19.50;51.00
63047;DHT22;62025;39.238;9.126;2022-10-28T04:06:28;19.50;50.70
63047;DHT22;62025;39.238;9.126;2022-10-28T04:08:54;19.50;50.70
63047;DHT22;62025;39.238;9.126;2022-10-28T04:11:20;19.40;50.50
63047;DHT22;62025;39.238;9.126;2022-10-28T04:13:46;19.40;50.20
63047;DHT22;62025;39.238;9.126;2022-10-28T04:16:12;19.40;50.30
63047;DHT22;62025;39.238;9.126;2022-10-28T04:18:38;19.30;50.40
63047;DHT22;62025;39.238;9.126;2022-10-28T04:21:04;19.30;50.10
63047;DHT22;62025;39.238;9.126;2022-10-28T04:23:30;19.40;50.20
63047;DHT22;62025;39.238;9.126;2022-10-28T04:25:56;19.30;50.10
63047;DHT22;62025;39.238;9.126;2022-10-28T04:28:22;19.30;49.80
63047;DHT22;62025;39.238;9.126;2022-10-28T04:30:51;19.20;49.80
63047;DHT22;62025;39.238;9.126;2022-10-28T04:33:17;19.10;50.00
63047;DHT22;62025;39.238;9.126;2022-10-28T04:35:43;19.00;50.30
63047;DHT22;62025;39.238;9.126;2022-10-28T04:38:09;19.10;50.10
63047;DHT22;62025;39.238;9.126;2022-10-28T04:40:36;19.10;50.20
63047;DHT22;62025;39.238;9.126;2022-10-28T04:43:02;19.10;50.40
63047;DHT22;62025;39.238;9.126;2022-10-28T04:45:27;19.10;50.30
63047;DHT22;62025;39.238;9.126;2022-10-28T04:47:57;19.10;50.40
63047;DHT22;62025;39.238;9.126;2022-10-28T04:50:24;19.00;50.50
63047;DHT22;62025;39.238;9.126;2022-10-28T04:52:50;19.00;50.80
63047;DHT22;62025;39.238;9.126;2022-10-28T04:55:16;19.00;50.60
63047;DHT22;62025;39.238;9.126;2022-10-28T04:57:42;19.10;50.50
63047;DHT22;62025;39.238;9.126;2022-10-28T05:00:08;19.20;50.20
63047;DHT22;62025;39.238;9.126;2022-10-28T05:02:34;19.30;49.80
63047;DHT22;62025;39.238;9.126;2022-10-28T05:05:00;19.30;49.30
63047;DHT22;62025;39.238;9.126;2022-10-28T05:07:28;19.30;49.30
63047;DHT22;62025;39.238;9.126;2022-10-28T05:09:54;19.30;48.80
63047;DHT22;62025;39.238;9.126;2022-10-28T05:12:20;19.20;48.50
63047;DHT22;62025;39.238;9.126;2022-10-28T05:14:46;19.10;48.30
63047;DHT22;62025;39.238;9.126;2022-10-28T05:17:12;19.10;48.00
63047;DHT22;62025;39.238;9.126;2022-10-28T05:19:38;18.90;47.90
63047;DHT22;62025;39.238;9.126;2022-10-28T05:22:04;18.80;47.90
63047;DHT22;62025;39.238;9.126;2022-10-28T05:24:29;18.80;47.80
63047;DHT22;62025;39.238;9.126;2022-10-28T05:26:57;18.80;48.00
63047;DHT22;62025;39.238;9.126;2022-10-28T05:29:24;18.70;47.70
63047;DHT22;62025;39.238;9.126;2022-10-28T05:31:50;18.70;47.80
63047;DHT22;62025;39.238;9.126;2022-10-28T05:34:16;18.80;47.60
63047;DHT22;62025;39.238;9.126;2022-10-28T05:36:42;18.90;47.60
63047;DHT22;62025;39.238;9.126;2022-10-28T05:39:07;19.00;47.40
63047;DHT22;62025;39.238;9.126;2022-10-28T05:41:33;19.10;47.20
63047;DHT22;62025;39.238;9.126;2022-10-28T05:43:59;19.10;47.10
63047;DHT22;62025;39.238;9.126;2022-10-28T05:46:25;18.90;46.80
63047;DHT22;62025;39.238;9.126;2022-10-28T05:48:51;18.80;47.00
63047;DHT22;62025;39.238;9.126;2022-10-28T05:51:17;18.80;46.80
63047;DHT22;62025;39.238;9.126;2022-10-28T05:53:43;18.90;46.60
63047;DHT22;62025;39.238;9.126;2022-10-28T05:56:09;18.90;46.20
63047;DHT22;62025;39.238;9.126;2022-10-28T05:58:35;18.80;46.60
63047;DHT22;62025;39.238;9.126;2022-10-28T06:01:01;18.60;46.70
63047;DHT22;62025;39.238;9.126;2022-10-28T06:03:27;18.90;46.60
63047;DHT22;62025;39.238;9.126;2022-10-28T06:05:52;19.00;46.20
63047;DHT22;62025;39.238;9.126;2022-10-28T06:08:19;19.00;46.10
63047;DHT22;62025;39.238;9.126;2022-10-28T06:10:49;19.10;45.90
63047;DHT22;62025;39.238;9.126;2022-10-28T06:13:15;19.00;45.80
63047;DHT22;62025;39.238;9.126;2022-10-28T06:15:41;19.10;45.90
63047;DHT22;62025;39.238;9.126;2022-10-28T06:18:07;19.10;45.50
63047;DHT22;62025;39.238;9.126;2022-10-28T06:20:33;19.20;45.40
63047;DHT22;62025;39.238;9.126;2022-10-28T06:22:59;19.30;45.10
63047;DHT22;62025;39.238;9.126;2022-10-28T06:25:25;19.30;45.10
63047;DHT22;62025;39.238;9.126;2022-10-28T06:27:52;19.30;45.20
63047;DHT22;62025;39.238;9.126;2022-10-28T06:30:19;19.40;44.80
63047;DHT22;62025;39.238;9.126;2022-10-28T06:32:44;19.40;44.00
63047;DHT22;62025;39.238;9.126;2022-10-28T06:35:10;19.40;44.10
63047;DHT22;62025;39.238;9.126;2022-10-28T06:37:36;19.70;44.40
63047;DHT22;62025;39.238;9.126;2022-10-28T06:40:02;19.80;44.10
63047;DHT22;62025;39.238;9.126;2022-10-28T06:42:28;19.90;43.50
63047;DHT22;62025;39.238;9.126;2022-10-28T06:44:54;19.90;43.20
63047;DHT22;62025;39.238;9.126;2022-10-28T06:47:20;19.70;43.10
63047;DHT22;62025;39.238;9.126;2022-10-28T06:49:46;19.80;43.40
63047;DHT22;62025;39.238;9.126;2022-10-28T06:52:12;19.90;43.10
63047;DHT22;62025;39.238;9.126;2022-10-28T06:54:38;20.20;41.80
63047;DHT22;62025;39.238;9.126;2022-10-28T06:57:04;19.80;42.10
63047;DHT22;62025;39.238;9.126;2022-10-28T06:59:30;19.60;42.80
63047;DHT22;62025;39.238;9.126;2022-10-28T07:01:56;19.90;42.70
63047;DHT22;62025;39.238;9.126;2022-10-28T07:04:22;20.10;42.50
63047;DHT22;62025;39.238;9.126;2022-10-28T07:06:48;20.60;41.60
63047;DHT22;62025;39.238;9.126;2022-10-28T07:09:14;20.50;41.20
63047;DHT22;62025;39.238;9.126;2022-10-28T07:11:40;20.60;40.90
63047;DHT22;62025;39.238;9.126;2022-10-28T07:14:08;20.90;41.20
63047;DHT22;62025;39.238;9.126;2022-10-28T07:16:35;21.00;40.60
63047;DHT22;62025;39.238;9.126;2022-10-28T07:19:01;21.30;40.50
63047;DHT22;62025;39.238;9.126;2022-10-28T07:21:26;21.30;40.30
63047;DHT22;62025;39.238;9.126;2022-10-28T07:23:54;21.40;40.80
63047;DHT22;62025;39.238;9.126;2022-10-28T07:26:21;21.40;40.50
63047;DHT22;62025;39.238;9.126;2022-10-28T07:28:47;21.70;40.00
63047;DHT22;62025;39.238;9.126;2022-10-28T07:31:13;22.00;40.50
63047;DHT22;62025;39.238;9.126;2022-10-28T07:33:39;22.30;40.30
63047;DHT22;62025;39.238;9.126;2022-10-28T07:36:05;22.50;39.60
63047;DHT22;62025;39.238;9.126;2022-10-28T07:38:32;22.40;38.50
63047;DHT22;62025;39.238;9.126;2022-10-28T07:41:03;22.30;37.60
63047;DHT22;62025;39.238;9.126;2022-10-28T07:43:35;22.30;37.40
63047;DHT22;62025;39.238;9.126;2022-10-28T07:46:02;22.50;37.30
63047;DHT22;62025;39.238;9.126;2022-10-28T07:48:28;22.40;37.40
63047;DHT22;62025;39.238;9.126;2022-10-28T07:50:54;23.00;37.60
63047;DHT22;62025;39.238;9.126;2022-10-28T07:53:20;23.30;37.60
63047;DHT22;62025;39.238;9.126;2022-10-28T07:55:56;23.50;37.50
63047;DHT22;62025;39.238;9.126;2022-10-28T07:58:23;23.80;36.70
63047;DHT22;62025;39.238;9.126;2022-10-28T08:00:48;23.80;36.20
63047;DHT22;62025;39.238;9.126;2022-10-28T08:03:14;23.90;35.80
63047;DHT22;62025;39.238;9.126;2022-10-28T08:05:40;23.80;35.50
63047;DHT22;62025;39.238;9.126;2022-10-28T08:08:06;23.60;35.50
63047;DHT22;62025;39.238;9.126;2022-10-28T08:10:32;23.70;36.60
63047;DHT22;62025;39.238;9.126;2022-10-28T08:12:58;23.90;35.50
63047;DHT22;62025;39.238;9.126;2022-10-28T08:15:25;24.10;35.60
63047;DHT22;62025;39.238;9.126;2022-10-28T08:17:51;24.20;35.00
63047;DHT22;62025;39.238;9.126;2022-10-28T08:20:18;24.40;35.10
63047;DHT22;62025;39.238;9.126;2022-10-28T08:22:44;24.50;34.60
63047;DHT22;62025;39.238;9.126;2022-10-28T08:25:10;24.60;35.60
63047;DHT22;62025;39.238;9.126;2022-10-28T08:27:36;24.80;34.90
63047;DHT22;62025;39.238;9.126;2022-10-28T08:30:03;24.70;35.00
63047;DHT22;62025;39.238;9.126;2022-10-28T08:32:29;24.90;35.00
63047;DHT22;62025;39.238;9.126;2022-10-28T08:34:55;24.80;34.90
63047;DHT22;62025;39.238;9.126;2022-10-28T08:37:21;24.70;34.80
63047;DHT22;62025;39.238;9.126;2022-10-28T08:39:47;24.80;35.40
63047;DHT22;62025;39.238;9.126;2022-10-28T08:44:48;25.30;34.90
63047;DHT22;62025;39.238;9.126;2022-10-28T08:49:54;25.40;34.70
63047;DHT22;62025;39.238;9.126;2022-10-28T08:55:29;25.40;34.90
63047;DHT22;62025;39.238;9.126;2022-10-28T08:58:01;25.60;34.70
63047;DHT22;62025;39.238;9.126;2022-10-28T09:00:32;25.60;34.90
63047;DHT22;62025;39.238;9.126;2022-10-28T09:05:37;25.90;34.10
63047;DHT22;62025;39.238;9.126;2022-10-28T09:08:04;26.40;33.60
63047;DHT22;62025;39.238;9.126;2022-10-28T09:10:55;26.70;33.20
63047;DHT22;62025;39.238;9.126;2022-10-28T09:27:59;26.40;33.10
63047;DHT22;62025;39.238;9.126;2022-10-28T09:35:51;26.40;32.10
63047;DHT22;62025;39.238;9.126;2022-10-28T09:40:50;26.40;32.20
63047;DHT22;62025;39.238;9.126;2022-10-28T09:43:24;26.40;31.90
63047;DHT22;62025;39.238;9.126;2022-10-28T09:45:54;26.60;32.00
63047;DHT22;62025;39.238;9.126;2022-10-28T09:48:36;26.60;32.00
63047;DHT22;62025;39.238;9.126;2022-10-28T09:51:04;26.70;31.70
63047;DHT22;62025;39.238;9.126;2022-10-28T09:53:33;27.50;30.00
63047;DHT22;62025;39.238;9.126;2022-10-28T09:56:03;27.70;29.50
63047;DHT22;62025;39.238;9.126;2022-10-28T09:58:31;27.70;29.40
63047;DHT22;62025;39.238;9.126;2022-10-28T10:00:58;27.30;30.10
63047;DHT22;62025;39.238;9.126;2022-10-28T10:03:24;26.90;30.90
63047;DHT22;62025;39.238;9.126;2022-10-28T10:05:50;27.30;30.50
63047;DHT22;62025;39.238;9.126;2022-10-28T10:08:18;27.50;30.40
63047;DHT22;62025;39.238;9.126;2022-10-28T10:11:01;27.70;29.90
63047;DHT22;62025;39.238;9.126;2022-10-28T10:13:34;28.00;28.90
63047;DHT22;62025;39.238;9.126;2022-10-28T10:16:03;27.50;29.30
63047;DHT22;62025;39.238;9.126;2022-10-28T10:18:34;27.60;28.80
63047;DHT22;62025;39.238;9.126;2022-10-28T10:21:06;27.40;29.50
63047;DHT22;62025;39.238;9.126;2022-10-28T10:23:35;27.40;29.50
63047;DHT22;62025;39.238;9.126;2022-10-28T10:26:03;27.60;29.00
63047;DHT22;62025;39.238;9.126;2022-10-28T10:28:45;27.50;28.80
63047;DHT22;62025;39.238;9.126;2022-10-28T10:31:24;27.60;29.10
63047;DHT22;62025;39.238;9.126;2022-10-28T10:33:52;27.50;29.60
63047;DHT22;62025;39.238;9.126;2022-10-28T10:36:19;27.20;30.90
63047;DHT22;62025;39.238;9.126;2022-10-28T10:38:49;27.10;31.50
63047;DHT22;62025;39.238;9.126;2022-10-28T10:44:01;26.90;32.20
63047;DHT22;62025;39.238;9.126;2022-10-28T10:46:39;27.00;32.60
63047;DHT22;62025;39.238;9.126;2022-10-28T10:49:10;26.70;33.30
63047;DHT22;62025;39.238;9.126;2022-10-28T10:51:38;26.50;33.90
63047;DHT22;62025;39.238;9.126;2022-10-28T10:54:15;26.60;33.50
63047;DHT22;62025;39.238;9.126;2022-10-28T10:56:41;26.40;34.90
63047;DHT22;62025;39.238;9.126;2022-10-28T10:59:15;26.30;35.80
63047;DHT22;62025;39.238;9.126;2022-10-28T11:01:44;26.20;36.30
63047;DHT22;62025;39.238;9.126;2022-10-28T11:04:28;26.00;36.70
63047;DHT22;62025;39.238;9.126;2022-10-28T11:06:55;26.00;37.20
63047;DHT22;62025;39.238;9.126;2022-10-28T11:09:25;26.00;35.70
63047;DHT22;62025;39.238;9.126;2022-10-28T11:11:52;26.00;37.60
63047;DHT22;62025;39.238;9.126;2022-10-28T11:14:23;26.00;38.30
63047;DHT22;62025;39.238;9.126;2022-10-28T11:16:54;25.90;37.70
63047;DHT22;62025;39.238;9.126;2022-10-28T11:19:22;25.70;38.00
63047;DHT22;62025;39.238;9.126;2022-10-28T11:29:54;25.60;35.30
63047;DHT22;62025;39.238;9.126;2022-10-28T11:41:00;25.60;31.60
63047;DHT22;62025;39.238;9.126;2022-10-28T11:43:44;25.50;30.70
63047;DHT22;62025;39.238;9.126;2022-10-28T11:46:16;25.50;30.60
63047;DHT22;62025;39.238;9.126;2022-10-28T11:52:11;25.40;30.70
63047;DHT22;62025;39.238;9.126;2022-10-28T11:54:54;25.30;31.10
63047;DHT22;62025;39.238;9.126;2022-10-28T11:57:42;25.30;31.80
63047;DHT22;62025;39.238;9.126;2022-10-28T12:16:42;25.40;34.70
63047;DHT22;62025;39.238;9.126;2022-10-28T12:19:16;25.40;35.30
63047;DHT22;62025;39.238;9.126;2022-10-28T12:24:29;25.30;36.30
63047;DHT22;62025;39.238;9.126;2022-10-28T12:26:56;25.30;36.90
63047;DHT22;62025;39.238;9.126;2022-10-28T12:29:24;25.20;37.50
63047;DHT22;62025;39.238;9.126;2022-10-28T12:32:06;25.20;38.00
63047;DHT22;62025;39.238;9.126;2022-10-28T12:34:57;25.10;38.40
63047;DHT22;62025;39.238;9.126;2022-10-28T12:37:24;25.00;39.50
63047;DHT22;62025;39.238;9.126;2022-10-28T12:39:55;25.10;39.90
63047;DHT22;62025;39.238;9.126;2022-10-28T12:42:26;24.90;42.00
63047;DHT22;62025;39.238;9.126;2022-10-28T12:44:56;24.70;43.30
63047;DHT22;62025;39.238;9.126;2022-10-28T12:47:26;24.60;44.80
63047;DHT22;62025;39.238;9.126;2022-10-28T12:50:00;24.50;45.50
63047;DHT22;62025;39.238;9.126;2022-10-28T12:52:50;24.50;45.90
63047;DHT22;62025;39.238;9.126;2022-10-28T12:55:45;24.40;46.50
63047;DHT22;62025;39.238;9.126;2022-10-28T13:00:59;24.50;46.50
63047;DHT22;62025;39.238;9.126;2022-10-28T13:03:28;24.70;46.60
63047;DHT22;62025;39.238;9.126;2022-10-28T13:06:01;24.90;46.60
63047;DHT22;62025;39.238;9.126;2022-10-28T13:08:39;24.90;46.10
63047;DHT22;62025;39.238;9.126;2022-10-28T13:27:47;24.90;48.30
63047;DHT22;62025;39.238;9.126;2022-10-28T13:30:22;24.90;48.70
63047;DHT22;62025;39.238;9.126;2022-10-28T13:33:13;24.90;49.10
63047;DHT22;62025;39.238;9.126;2022-10-28T13:35:41;24.90;49.50
63047;DHT22;62025;39.238;9.126;2022-10-28T13:38:10;24.80;50.20
63047;DHT22;62025;39.238;9.126;2022-10-28T13:43:02;24.80;51.10
63047;DHT22;62025;39.238;9.126;2022-10-28T13:45:48;24.70;51.60
63047;DHT22;62025;39.238;9.126;2022-10-28T13:48:50;24.80;52.30
63047;DHT22;62025;39.238;9.126;2022-10-28T13:53:39;24.40;55.20
63047;DHT22;62025;39.238;9.126;2022-10-28T13:58:53;24.40;56.10
63047;DHT22;62025;39.238;9.126;2022-10-28T14:04:23;24.40;57.30
63047;DHT22;62025;39.238;9.126;2022-10-28T14:09:36;24.30;59.50
63047;DHT22;62025;39.238;9.126;2022-10-28T14:14:45;24.30;61.00
63047;DHT22;62025;39.238;9.126;2022-10-28T14:17:25;24.30;61.40
63047;DHT22;62025;39.238;9.126;2022-10-28T14:19:54;24.30;61.20
63047;DHT22;62025;39.238;9.126;2022-10-28T14:22:27;24.40;61.10
63047;DHT22;62025;39.238;9.126;2022-10-28T14:24:55;24.40;62.40
63047;DHT22;62025;39.238;9.126;2022-10-28T14:27:38;24.40;62.70
63047;DHT22;62025;39.238;9.126;2022-10-28T14:32:42;24.40;61.00
63047;DHT22;62025;39.238;9.126;2022-10-28T14:37:42;24.50;61.20
63047;DHT22;62025;39.238;9.126;2022-10-28T14:43:05;24.40;61.20
63047;DHT22;62025;39.238;9.126;2022-10-28T14:48:39;24.40;60.60
63047;DHT22;62025;39.238;9.126;2022-10-28T14:51:08;24.40;61.20
63047;DHT22;62025;39.238;9.126;2022-10-28T14:53:39;24.40;62.50
63047;DHT22;62025;39.238;9.126;2022-10-28T14:56:09;24.50;61.20
63047;DHT22;62025;39.238;9.126;2022-10-28T14:58:41;24.40;62.50
63047;DHT22;62025;39.238;9.126;2022-10-28T15:03:44;24.40;62.80
63047;DHT22;62025;39.238;9.126;2022-10-28T15:06:31;24.40;61.60
63047;DHT22;62025;39.238;9.126;2022-10-28T15:14:24;24.40;58.30
63047;DHT22;62025;39.238;9.126;2022-10-28T15:16:51;24.40;59.20
63047;DHT22;62025;39.238;9.126;2022-10-28T15:19:18;24.30;56.70
63047;DHT22;62025;39.238;9.126;2022-10-28T15:22:01;24.30;56.20
63047;DHT22;62025;39.238;9.126;2022-10-28T15:24:28;24.40;55.70
63047;DHT22;62025;39.238;9.126;2022-10-28T15:26:54;24.30;55.60
63047;DHT22;62025;39.238;9.126;2022-10-28T15:29:21;24.40;55.20
63047;DHT22;62025;39.238;9.126;2022-10-28T15:34:42;24.40;53.20
63047;DHT22;62025;39.238;9.126;2022-10-28T15:37:08;24.30;54.70
63047;DHT22;62025;39.238;9.126;2022-10-28T15:39:35;24.30;55.30
63047;DHT22;62025;39.238;9.126;2022-10-28T15:42:02;24.30;54.70
63047;DHT22;62025;39.238;9.126;2022-10-28T15:44:33;24.30;53.40
63047;DHT22;62025;39.238;9.126;2022-10-28T15:47:13;24.30;51.30
63047;DHT22;62025;39.238;9.126;2022-10-28T15:49:42;24.30;52.70
63047;DHT22;62025;39.238;9.126;2022-10-28T15:54:42;24.30;51.00
63047;DHT22;62025;39.238;9.126;2022-10-28T15:57:28;24.30;49.90
63047;DHT22;62025;39.238;9.126;2022-10-28T16:07:58;24.20;48.00
63047;DHT22;62025;39.238;9.126;2022-10-28T16:10:27;24.20;48.50
63047;DHT22;62025;39.238;9.126;2022-10-28T16:12:53;24.10;48.10
63047;DHT22;62025;39.238;9.126;2022-10-28T16:15:19;24.20;48.20
63047;DHT22;62025;39.238;9.126;2022-10-28T16:17:45;24.10;48.40
63047;DHT22;62025;39.238;9.126;2022-10-28T16:20:18;24.10;48.50
63047;DHT22;62025;39.238;9.126;2022-10-28T16:22:46;24.10;49.10
63047;DHT22;62025;39.238;9.126;2022-10-28T16:25:13;24.10;50.00
63047;DHT22;62025;39.238;9.126;2022-10-28T16:27:45;24.10;51.10
63047;DHT22;62025;39.238;9.126;2022-10-28T16:30:11;24.10;52.50
63047;DHT22;62025;39.238;9.126;2022-10-28T16:32:38;23.90;56.20
63047;DHT22;62025;39.238;9.126;2022-10-28T16:35:15;24.00;58.20
63047;DHT22;62025;39.238;9.126;2022-10-28T16:37:46;24.00;59.80
63047;DHT22;62025;39.238;9.126;2022-10-28T16:40:12;24.00;61.20
63047;DHT22;62025;39.238;9.126;2022-10-28T16:42:39;23.90;61.00
63047;DHT22;62025;39.238;9.126;2022-10-28T16:45:14;23.90;63.00
63047;DHT22;62025;39.238;9.126;2022-10-28T16:47:42;24.00;63.40
63047;DHT22;62025;39.238;9.126;2022-10-28T16:50:08;24.00;65.50
63047;DHT22;62025;39.238;9.126;2022-10-28T16:52:34;24.00;65.80
63047;DHT22;62025;39.238;9.126;2022-10-28T16:55:00;23.90;67.40
63047;DHT22;62025;39.238;9.126;2022-10-28T16:57:26;23.90;67.10
63047;DHT22;62025;39.238;9.126;2022-10-28T16:59:52;23.90;67.80
63047;DHT22;62025;39.238;9.126;2022-10-28T17:02:20;24.00;69.70
63047;DHT22;62025;39.238;9.126;2022-10-28T17:04:49;23.90;70.30
63047;DHT22;62025;39.238;9.126;2022-10-28T17:07:15;23.90;71.80
63047;DHT22;62025;39.238;9.126;2022-10-28T17:09:42;23.90;70.90
63047;DHT22;62025;39.238;9.126;2022-10-28T17:12:16;23.90;70.60
63047;DHT22;62025;39.238;9.126;2022-10-28T17:14:49;23.90;72.40
63047;DHT22;62025;39.238;9.126;2022-10-28T17:17:15;23.90;71.70
63047;DHT22;62025;39.238;9.126;2022-10-28T17:19:42;23.90;72.50
63047;DHT22;62025;39.238;9.126;2022-10-28T17:22:10;23.90;74.00
63047;DHT22;62025;39.238;9.126;2022-10-28T17:24:36;23.90;73.40
63047;DHT22;62025;39.238;9.126;2022-10-28T17:27:02;23.90;73.30
63047;DHT22;62025;39.238;9.126;2022-10-28T17:29:28;23.90;73.70
63047;DHT22;62025;39.238;9.126;2022-10-28T17:31:54;23.80;74.50
63047;DHT22;62025;39.238;9.126;2022-10-28T17:34:20;23.80;74.60
63047;DHT22;62025;39.238;9.126;2022-10-28T17:36:46;23.80;74.90
63047;DHT22;62025;39.238;9.126;2022-10-28T17:39:12;23.80;74.80
63047;DHT22;62025;39.238;9.126;2022-10-28T17:41:38;23.70;75.20
63047;DHT22;62025;39.238;9.126;2022-10-28T17:44:04;23.80;75.50
63047;DHT22;62025;39.238;9.126;2022-10-28T17:46:30;23.80;75.40
63047;DHT22;62025;39.238;9.126;2022-10-28T17:48:55;23.80;75.50
63047;DHT22;62025;39.238;9.126;2022-10-28T17:51:21;23.70;75.70
63047;DHT22;62025;39.238;9.126;2022-10-28T17:53:53;23.70;75.60
63047;DHT22;62025;39.238;9.126;2022-10-28T17:56:19;23.70;76.50
63047;DHT22;62025;39.238;9.126;2022-10-28T17:58:45;23.60;76.50
63047;DHT22;62025;39.238;9.126;2022-10-28T18:01:11;23.60;77.10
63047;DHT22;62025;39.238;9.126;2022-10-28T18:03:37;23.50;76.50
63047;DHT22;62025;39.238;9.126;2022-10-28T18:06:04;23.50;77.30
63047;DHT22;62025;39.238;9.126;2022-10-28T18:08:32;23.40;76.10
63047;DHT22;62025;39.238;9.126;2022-10-28T18:11:02;23.40;73.70
63047;DHT22;62025;39.238;9.126;2022-10-28T18:13:29;23.30;72.80
63047;DHT22;62025;39.238;9.126;2022-10-28T18:16:03;23.20;71.90
63047;DHT22;62025;39.238;9.126;2022-10-28T18:18:29;23.20;71.10
63047;DHT22;62025;39.238;9.126;2022-10-28T18:20:55;23.10;70.50
63047;DHT22;62025;39.238;9.126;2022-10-28T18:23:22;23.10;70.30
63047;DHT22;62025;39.238;9.126;2022-10-28T18:25:58;23.00;70.30
63047;DHT22;62025;39.238;9.126;2022-10-28T18:28:30;23.00;69.90
63047;DHT22;62025;39.238;9.126;2022-10-28T18:31:01;23.00;69.80
63047;DHT22;62025;39.238;9.126;2022-10-28T18:33:35;23.00;70.20
63047;DHT22;62025;39.238;9.126;2022-10-28T18:36:01;23.00;70.50
63047;DHT22;62025;39.238;9.126;2022-10-28T18:38:33;23.00;70.70
63047;DHT22;62025;39.238;9.126;2022-10-28T18:40:59;22.90;70.80
63047;DHT22;62025;39.238;9.126;2022-10-28T18:43:25;23.00;71.30
63047;DHT22;62025;39.238;9.126;2022-10-28T18:45:51;23.00;71.30
63047;DHT22;62025;39.238;9.126;2022-10-28T18:48:17;23.00;70.50
63047;DHT22;62025;39.238;9.126;2022-10-28T18:50:53;22.90;70.10
63047;DHT22;62025;39.238;9.126;2022-10-28T18:53:20;22.90;70.00
63047;DHT22;62025;39.238;9.126;2022-10-28T18:55:46;22.90;70.00
63047;DHT22;62025;39.238;9.126;2022-10-28T18:58:12;22.90;70.50